createdAt,value
2023-04-25T00:01:10.422Z,11.40
2023-04-25T00:03:40.168Z,12.90
2023-04-25T00:06:08.696Z,9.80
2023-04-25T00:08:36.687Z,10.60
2023-04-25T00:11:04.625Z,10.20
2023-04-25T00:13:32.816Z,12.30
2023-04-25T00:16:01.256Z,10.90
2023-04-25T00:18:30.868Z,12.50
2023-04-25T00:20:59.176Z,11.50
2023-04-25T00:23:27.316Z,12.60
2023-04-25T00:25:54.939Z,12.40
2023-04-25T00:28:22.669Z,10.00
2023-04-25T00:30:51.341Z,11.10
2023-04-25T00:33:19.004Z,11.70
2023-04-25T00:35:46.769Z,9.00
2023-04-25T00:38:14.625Z,8.40
2023-04-25T00:40:44.877Z,8.70
2023-04-25T00:43:12.480Z,7.80
2023-04-25T00:45:40.932Z,7.90
2023-04-25T00:48:08.803Z,10.20
2023-04-25T00:50:38.118Z,7.20
2023-04-25T00:53:06.545Z,7.50
2023-04-25T00:55:35.754Z,8.50
2023-04-25T00:58:03.521Z,7.80
2023-04-25T01:00:31.549Z,10.00
2023-04-25T01:02:59.974Z,10.60
2023-04-25T01:05:27.802Z,10.60
2023-04-25T01:07:55.790Z,8.10
2023-04-25T01:10:23.532Z,8.70
2023-04-25T01:12:51.315Z,7.00
2023-04-25T01:15:18.990Z,9.20
2023-04-25T01:17:47.614Z,7.90
2023-04-25T01:20:15.418Z,8.20
2023-04-25T01:22:44.470Z,8.10
2023-04-25T01:25:12.262Z,8.00
2023-04-25T01:27:41.323Z,9.60
2023-04-25T01:30:10.133Z,8.80
2023-04-25T01:32:40.930Z,7.60
2023-04-25T01:35:11.222Z,6.50
2023-04-25T01:37:42.220Z,6.70
2023-04-25T01:40:12.354Z,9.50
2023-04-25T01:42:43.539Z,7.80
2023-04-25T01:47:41.239Z,6.90
2023-04-25T01:50:09.869Z,7.40
2023-04-25T01:52:37.936Z,6.60
2023-04-25T01:55:07.173Z,8.90
2023-04-25T01:57:34.905Z,9.40
2023-04-25T02:00:07.726Z,9.30
2023-04-25T02:02:36.071Z,8.70
2023-04-25T02:05:04.335Z,7.90
2023-04-25T02:07:33.150Z,7.60
2023-04-25T02:10:01.208Z,7.10
2023-04-25T02:12:29.411Z,7.50
2023-04-25T02:14:57.146Z,8.10
2023-04-25T02:17:24.906Z,8.50
2023-04-25T02:19:52.592Z,6.50
2023-04-25T02:22:20.328Z,8.40
2023-04-25T02:24:47.965Z,7.40
2023-04-25T02:27:16.283Z,10.50
2023-04-25T02:29:43.939Z,7.60
2023-04-25T02:32:11.695Z,6.90
2023-04-25T02:34:39.355Z,8.60
2023-04-25T02:37:07.064Z,6.80
2023-04-25T02:39:34.704Z,7.30
2023-04-25T02:42:02.820Z,7.60
2023-04-25T02:44:30.570Z,7.60
2023-04-25T02:46:58.222Z,9.50
2023-04-25T02:49:26.190Z,6.50
2023-04-25T02:51:53.817Z,8.00
2023-04-25T02:54:21.505Z,7.20
2023-04-25T02:56:49.415Z,7.30
2023-04-25T02:59:17.075Z,6.60
2023-04-25T03:01:44.706Z,6.90
2023-04-25T03:04:12.381Z,8.10
2023-04-25T03:06:40.282Z,6.20
2023-04-25T03:09:08.295Z,6.40
2023-04-25T03:11:35.935Z,6.40
2023-04-25T03:14:04.116Z,4.70
2023-04-25T03:16:32.255Z,7.00
2023-04-25T03:19:00.106Z,6.00
2023-04-25T03:21:27.930Z,6.40
2023-04-25T03:23:55.613Z,5.00
2023-04-25T03:26:23.359Z,5.00
2023-04-25T03:28:51.207Z,6.10
2023-04-25T03:31:18.977Z,5.60
2023-04-25T03:33:46.593Z,6.40
2023-04-25T03:36:14.263Z,6.90
2023-04-25T03:38:42.809Z,7.50
2023-04-25T03:41:10.538Z,5.70
2023-04-25T03:43:38.224Z,7.00
2023-04-25T03:46:05.915Z,7.60
2023-04-25T03:48:33.692Z,6.30
2023-04-25T03:51:01.411Z,10.00
2023-04-25T03:53:29.157Z,6.10
2023-04-25T03:55:56.832Z,6.60
2023-04-25T03:58:25.609Z,11.70
2023-04-25T04:00:53.220Z,6.20
2023-04-25T04:03:21.797Z,6.30
2023-04-25T04:05:49.954Z,6.70
2023-04-25T04:08:17.780Z,5.80
2023-04-25T04:10:45.447Z,9.20
2023-04-25T04:13:13.206Z,5.70
2023-04-25T04:15:41.005Z,8.50
2023-04-25T04:18:08.691Z,7.70
2023-04-25T04:20:36.387Z,7.20
2023-04-25T04:23:04.262Z,5.80
2023-04-25T04:25:32.213Z,7.50
2023-04-25T04:28:00.150Z,8.90
2023-04-25T04:30:30.566Z,7.70
2023-04-25T04:32:59.078Z,8.30
2023-04-25T04:35:26.962Z,7.50
2023-04-25T04:37:55.671Z,7.50
2023-04-25T04:40:23.411Z,8.60
2023-04-25T04:42:51.116Z,6.40
2023-04-25T04:45:19.357Z,9.10
2023-04-25T04:47:47.459Z,6.10
2023-04-25T04:50:16.184Z,8.20
2023-04-25T04:52:43.879Z,7.70
2023-04-25T04:55:11.632Z,9.40
2023-04-25T04:57:39.811Z,8.40
2023-04-25T05:00:11.891Z,8.50
2023-04-25T05:02:40.286Z,7.40
2023-04-25T05:05:09.242Z,7.90
2023-04-25T05:07:36.918Z,11.80
2023-04-25T05:10:05.462Z,8.50
2023-04-25T05:12:34.063Z,10.20
2023-04-25T05:15:02.754Z,7.20
2023-04-25T05:17:30.647Z,9.50
2023-04-25T05:19:58.295Z,8.10
2023-04-25T05:22:25.923Z,8.80
2023-04-25T05:24:55.949Z,9.00
2023-04-25T05:27:24.136Z,9.90
2023-04-25T05:29:52.906Z,8.30
2023-04-25T05:32:20.630Z,8.20
2023-04-25T05:34:48.475Z,7.90
2023-04-25T05:37:16.313Z,8.80
2023-04-25T05:39:44.028Z,9.10
2023-04-25T05:42:11.691Z,11.80
2023-04-25T05:44:39.452Z,11.30
2023-04-25T05:47:07.347Z,6.30
2023-04-25T05:49:35.964Z,10.00
2023-04-25T05:52:04.118Z,7.60
2023-04-25T05:54:31.846Z,7.80
2023-04-25T05:56:59.508Z,8.20
2023-04-25T05:59:27.194Z,6.70
2023-04-25T06:01:56.115Z,8.40
2023-04-25T06:04:24.069Z,8.80
2023-04-25T06:06:51.929Z,6.00
2023-04-25T06:09:19.553Z,7.40
2023-04-25T06:11:47.155Z,8.70
2023-04-25T06:14:14.778Z,6.20
2023-04-25T06:16:42.436Z,7.30
2023-04-25T06:19:10.105Z,7.10
2023-04-25T06:21:37.766Z,9.80
2023-04-25T06:24:05.766Z,8.00
2023-04-25T06:26:33.507Z,8.00
2023-04-25T06:29:01.308Z,7.20
2023-04-25T06:31:30.040Z,8.50
2023-04-25T06:33:57.818Z,6.80
2023-04-25T06:36:27.111Z,7.50
2023-04-25T06:38:55.623Z,7.60
2023-04-25T06:41:23.370Z,6.90
2023-04-25T06:43:51.127Z,7.20
2023-04-25T06:46:19.427Z,7.10
2023-04-25T06:48:47.586Z,7.20
2023-04-25T06:51:15.342Z,5.60
2023-04-25T06:53:42.965Z,8.00
2023-04-25T06:56:11.143Z,4.70
2023-04-25T06:58:38.968Z,7.10
2023-04-25T07:01:06.805Z,5.00
2023-04-25T07:03:34.691Z,6.40
2023-04-25T07:06:02.554Z,7.20
2023-04-25T07:08:31.016Z,7.70
2023-04-25T07:10:59.069Z,6.50
2023-04-25T07:13:26.729Z,7.40
2023-04-25T07:15:56.658Z,5.40
2023-04-25T07:18:24.935Z,6.20
2023-04-25T07:20:52.599Z,4.50
2023-04-25T07:23:20.369Z,4.50
2023-04-25T07:25:48.657Z,4.20
2023-04-25T07:28:18.126Z,5.40
2023-04-25T07:30:47.326Z,5.10
2023-04-25T07:33:15.248Z,4.20
2023-04-25T07:35:43.037Z,5.80
2023-04-25T07:38:11.476Z,6.40
2023-04-25T07:40:39.317Z,3.90
2023-04-25T07:43:07.196Z,4.20
2023-04-25T07:45:34.956Z,4.70
2023-04-25T07:48:08.451Z,7.10
2023-04-25T07:50:41.335Z,4.90
2023-04-25T07:53:10.877Z,4.00
2023-04-25T07:55:41.348Z,4.20
2023-04-25T07:58:10.838Z,6.80
2023-04-25T08:00:39.747Z,5.90
2023-04-25T08:03:08.882Z,3.90
2023-04-25T08:05:37.227Z,4.50
2023-04-25T08:08:07.445Z,3.90
2023-04-25T08:10:35.629Z,4.20
2023-04-25T08:13:03.788Z,4.40
2023-04-25T08:15:31.478Z,3.90
2023-04-25T08:18:00.522Z,4.60
2023-04-25T08:20:28.761Z,5.90
2023-04-25T08:22:56.624Z,4.70
2023-04-25T08:25:24.867Z,6.30
2023-04-25T08:27:53.252Z,6.40
2023-04-25T08:30:22.179Z,4.30
2023-04-25T08:32:50.107Z,5.30
2023-04-25T08:35:18.563Z,6.90
2023-04-25T08:37:46.473Z,5.10
2023-04-25T08:40:16.132Z,4.60
2023-04-25T08:42:44.048Z,4.40
2023-04-25T08:45:12.189Z,4.70
2023-04-25T08:47:41.029Z,4.50
2023-04-25T08:50:08.891Z,5.20
2023-04-25T08:52:40.872Z,4.70
2023-04-25T08:55:10.701Z,4.80
2023-04-25T08:57:39.290Z,7.40
2023-04-25T09:00:09.093Z,7.90
2023-04-25T09:02:37.801Z,6.70
2023-04-25T09:05:07.689Z,7.20
2023-04-25T09:07:35.476Z,7.20
2023-04-25T09:10:04.520Z,5.80
2023-04-25T09:12:33.139Z,5.50
2023-04-25T09:15:05.511Z,5.30
2023-04-25T09:17:33.496Z,6.40
2023-04-25T09:20:11.937Z,6.20
2023-04-25T09:22:40.162Z,6.20
2023-04-25T09:25:13.302Z,6.70
2023-04-25T09:27:52.259Z,6.50
2023-04-25T09:30:29.342Z,7.30
2023-04-25T09:33:08.149Z,7.50
2023-04-25T09:35:41.303Z,6.70
2023-04-25T09:38:13.407Z,10.40
2023-04-25T09:40:46.411Z,6.00
2023-04-25T09:43:24.741Z,8.30
2023-04-25T09:45:58.898Z,6.80
2023-04-25T09:48:28.793Z,5.80
2023-04-25T09:51:11.316Z,7.30
2023-04-25T09:53:41.846Z,6.20
2023-04-25T09:56:11.792Z,6.40
2023-04-25T09:58:41.761Z,6.10
2023-04-25T10:01:12.601Z,5.20
2023-04-25T10:03:41.595Z,5.20
2023-04-25T10:06:13.840Z,5.30
2023-04-25T10:08:42.737Z,6.00
2023-04-25T10:11:11.011Z,4.90
2023-04-25T10:13:38.710Z,6.90
2023-04-25T10:16:06.556Z,6.70
2023-04-25T10:18:34.331Z,4.30
2023-04-25T10:21:05.202Z,4.40
2023-04-25T10:23:35.680Z,3.90
2023-04-25T10:26:03.537Z,4.20
2023-04-25T10:28:58.835Z,5.40
2023-04-25T10:31:27.017Z,4.30
2023-04-25T10:33:54.865Z,3.70
2023-04-25T10:36:24.208Z,5.10
2023-04-25T10:38:52.437Z,4.70
2023-04-25T10:41:21.669Z,4.20
2023-04-25T10:43:52.258Z,4.10
2023-04-25T10:46:27.039Z,3.00
2023-04-25T10:49:02.419Z,3.80
2023-04-25T10:51:50.883Z,3.60
2023-04-25T10:54:26.138Z,3.10
2023-04-25T10:56:54.702Z,3.60
2023-04-25T10:59:26.026Z,3.90
2023-04-25T11:01:56.126Z,4.80
2023-04-25T11:04:35.537Z,4.70
2023-04-25T11:07:06.818Z,3.50
2023-04-25T11:09:39.364Z,3.80
2023-04-25T11:12:10.113Z,3.60
2023-04-25T11:14:38.027Z,4.50
2023-04-25T11:17:07.250Z,5.40
2023-04-25T11:19:35.029Z,4.10
2023-04-25T11:22:04.214Z,4.20
2023-04-25T11:24:33.988Z,3.70
2023-04-25T11:27:05.442Z,3.60
2023-04-25T11:29:35.069Z,3.80
2023-04-25T11:32:03.555Z,5.60
2023-04-25T11:34:34.175Z,4.60
2023-04-25T11:37:03.679Z,4.00
2023-04-25T11:39:31.530Z,4.90
2023-04-25T11:42:01.381Z,4.80
2023-04-25T11:44:30.929Z,6.30
2023-04-25T11:46:58.908Z,6.00
2023-04-25T11:49:32.559Z,5.30
2023-04-25T11:52:00.458Z,5.40
2023-04-25T11:54:28.171Z,5.00
2023-04-25T11:56:56.231Z,4.90
2023-04-25T11:59:26.222Z,5.80
2023-04-25T12:01:54.605Z,5.30
2023-04-25T12:04:24.673Z,4.10
2023-04-25T12:06:55.470Z,3.70
2023-04-25T12:09:32.011Z,3.90
2023-04-25T12:12:04.369Z,4.00
2023-04-25T12:14:36.865Z,5.80
2023-04-25T12:17:08.712Z,3.30
2023-04-25T12:19:41.312Z,4.00
2023-04-25T12:22:23.511Z,5.60
2023-04-25T12:24:51.770Z,4.80
2023-04-25T12:27:20.254Z,5.80
2023-04-25T12:29:56.951Z,4.00
2023-04-25T12:32:25.424Z,5.10
2023-04-25T12:34:53.307Z,4.00
2023-04-25T12:37:21.360Z,4.80
2023-04-25T12:39:49.516Z,4.10
2023-04-25T12:42:17.275Z,3.20
2023-04-25T12:44:45.040Z,6.00
2023-04-25T12:47:13.118Z,5.40
2023-04-25T12:49:41.094Z,5.90
2023-04-25T12:52:08.839Z,4.00
2023-04-25T12:54:36.602Z,5.20
2023-04-25T12:57:04.518Z,4.00
2023-04-25T12:59:32.554Z,4.40
2023-04-25T13:02:00.703Z,5.20
2023-04-25T13:04:28.890Z,5.50
2023-04-25T13:06:56.952Z,4.20
2023-04-25T13:09:24.736Z,4.50
2023-04-25T13:11:54.786Z,4.40
2023-04-25T13:14:24.138Z,4.20
2023-04-25T13:16:51.960Z,5.50
2023-04-25T13:19:19.732Z,5.30
2023-04-25T13:21:47.477Z,6.00
2023-04-25T13:24:15.399Z,4.30
2023-04-25T13:26:43.164Z,4.90
2023-04-25T13:29:10.921Z,7.30
2023-04-25T13:31:38.642Z,5.70
2023-04-25T13:34:06.638Z,6.20
2023-04-25T13:36:35.022Z,6.70
2023-04-25T13:39:04.634Z,7.20
2023-04-25T13:41:32.803Z,5.00
2023-04-25T13:44:01.765Z,5.40
2023-04-25T13:46:45.539Z,5.30
2023-04-25T13:49:15.371Z,5.20
2023-04-25T13:51:43.624Z,5.90
2023-04-25T13:54:11.815Z,6.60
2023-04-25T13:56:39.785Z,5.70
2023-04-25T13:59:07.559Z,6.30
2023-04-25T14:01:36.882Z,6.30
2023-04-25T14:04:05.725Z,6.00
2023-04-25T14:06:34.024Z,5.80
2023-04-25T14:09:02.233Z,7.60
2023-04-25T14:11:30.061Z,7.00
2023-04-25T14:13:57.787Z,7.60
2023-04-25T14:16:25.737Z,5.90
2023-04-25T14:18:53.546Z,8.90
2023-04-25T14:21:22.208Z,6.00
2023-04-25T14:23:50.013Z,7.50
2023-04-25T14:26:17.950Z,7.80
2023-04-25T14:28:45.782Z,6.20
2023-04-25T14:31:13.837Z,6.40
2023-04-25T14:33:43.898Z,6.10
2023-04-25T14:36:12.165Z,8.90
2023-04-25T14:38:40.094Z,5.90
2023-04-25T14:41:07.911Z,6.00
2023-04-25T14:43:35.863Z,5.90
2023-04-25T14:46:04.237Z,6.30
2023-04-25T14:48:32.333Z,7.20
2023-04-25T14:51:03.558Z,5.20
2023-04-25T14:53:32.869Z,5.90
2023-04-25T14:56:00.616Z,5.80
2023-04-25T14:58:28.315Z,6.50
2023-04-25T15:00:56.644Z,5.80
2023-04-25T15:03:24.598Z,6.30
2023-04-25T15:05:53.006Z,5.70
2023-04-25T15:08:20.771Z,7.40
2023-04-25T15:10:48.858Z,4.90
2023-04-25T15:13:16.988Z,8.20
2023-04-25T15:15:44.677Z,5.70
2023-04-25T15:18:13.286Z,6.00
2023-04-25T15:20:41.260Z,7.70
2023-04-25T15:23:09.033Z,9.40
2023-04-25T15:25:36.795Z,9.20
2023-04-25T15:28:04.710Z,6.80
2023-04-25T15:30:32.492Z,8.70
2023-04-25T15:33:00.643Z,6.10
2023-04-25T15:35:28.620Z,5.20
2023-04-25T15:37:56.496Z,6.40
2023-04-25T15:40:24.570Z,6.70
2023-04-25T15:42:53.809Z,5.10
2023-04-25T15:45:26.136Z,6.00
2023-04-25T15:47:57.043Z,7.00
2023-04-25T15:50:25.847Z,7.80
2023-04-25T15:52:53.777Z,7.50
2023-04-25T15:55:22.113Z,4.90
2023-04-25T15:57:51.577Z,6.60
2023-04-25T16:00:21.298Z,5.40
2023-04-25T16:02:49.128Z,6.20
2023-04-25T16:05:19.419Z,7.40
2023-04-25T16:07:48.896Z,5.80
2023-04-25T16:10:22.797Z,8.40
2023-04-25T16:12:51.532Z,9.80
2023-04-25T16:15:19.765Z,6.00
2023-04-25T16:17:47.693Z,7.30
2023-04-25T16:20:16.343Z,11.00
2023-04-25T16:22:44.902Z,7.10
2023-04-25T16:25:13.910Z,7.60
2023-04-25T16:27:41.834Z,7.20
2023-04-25T16:30:11.175Z,9.30
2023-04-25T16:32:41.369Z,8.50
2023-04-25T16:35:10.455Z,8.20
2023-04-25T16:37:38.179Z,8.50
2023-04-25T16:40:09.880Z,10.20
2023-04-25T16:42:37.674Z,9.10
2023-04-25T16:45:06.445Z,6.60
2023-04-25T16:47:34.236Z,9.50
2023-04-25T16:50:01.938Z,9.20
2023-04-25T16:52:29.596Z,10.30
2023-04-25T16:54:57.729Z,9.70
2023-04-25T16:57:25.967Z,9.50
2023-04-25T16:59:53.597Z,8.90
2023-04-25T17:02:21.389Z,10.00
2023-04-25T17:04:49.471Z,7.90
2023-04-25T17:07:18.243Z,8.40
2023-04-25T17:09:45.915Z,9.10
2023-04-25T17:12:14.184Z,8.80
2023-04-25T17:14:43.112Z,8.50
2023-04-25T17:17:10.963Z,8.90
2023-04-25T17:19:38.821Z,7.90
2023-04-25T17:22:07.309Z,8.70
2023-04-25T17:24:35.019Z,8.50
2023-04-25T17:27:02.742Z,8.00
2023-04-25T17:29:30.451Z,6.90
2023-04-25T17:31:58.144Z,6.00
2023-04-25T17:34:26.331Z,4.30
2023-04-25T17:36:54.672Z,6.30
2023-04-25T17:39:22.442Z,5.70
2023-04-25T17:41:50.468Z,6.70
2023-04-25T17:44:18.276Z,6.70
2023-04-25T17:46:46.111Z,6.90
2023-04-25T17:49:13.969Z,7.40
2023-04-25T17:51:41.878Z,8.60
2023-04-25T17:54:09.618Z,6.40
2023-04-25T17:56:38.129Z,6.20
2023-04-25T17:59:06.213Z,6.40
2023-04-25T18:01:34.030Z,6.90
2023-04-25T18:04:04.212Z,9.00
2023-04-25T18:06:35.763Z,7.40
2023-04-25T18:09:16.086Z,6.60
2023-04-25T18:11:47.625Z,8.90
2023-04-25T18:14:17.750Z,7.70
2023-04-25T18:16:47.357Z,8.20
2023-04-25T18:19:24.775Z,8.20
2023-04-25T18:21:56.169Z,6.70
2023-04-25T18:24:27.224Z,7.10
2023-04-25T18:26:56.062Z,8.40
2023-04-25T18:29:32.833Z,7.60
2023-04-25T18:32:02.433Z,8.60
2023-04-25T18:34:30.988Z,8.00
2023-04-25T18:36:58.719Z,10.40
2023-04-25T18:39:27.715Z,10.00
2023-04-25T18:42:01.384Z,9.80
2023-04-25T18:44:35.756Z,8.10
2023-04-25T18:47:03.588Z,10.60
2023-04-25T18:49:32.406Z,11.20
2023-04-25T18:52:00.942Z,12.90
2023-04-25T18:54:28.767Z,10.50
2023-04-25T18:56:57.606Z,12.90
2023-04-25T18:59:26.322Z,11.00
2023-04-25T19:01:54.021Z,10.70
2023-04-25T19:04:22.177Z,9.90
2023-04-25T19:06:51.351Z,10.10
2023-04-25T19:09:19.530Z,11.80
2023-04-25T19:11:47.415Z,12.40
2023-04-25T19:14:15.240Z,13.70
2023-04-25T19:16:43.537Z,15.70
2023-04-25T19:19:11.570Z,16.00
2023-04-25T19:21:39.682Z,12.90
2023-04-25T19:24:08.462Z,13.30
2023-04-25T19:26:36.239Z,14.50
2023-04-25T19:29:13.517Z,12.00
2023-04-25T19:31:43.150Z,14.50
2023-04-25T19:34:12.262Z,14.40
2023-04-25T19:36:41.517Z,16.80
2023-04-25T19:39:09.700Z,21.30
2023-04-25T19:41:38.580Z,22.50
2023-04-25T19:44:08.544Z,26.20
2023-04-25T19:46:37.362Z,24.10
2023-04-25T19:49:09.022Z,23.90
2023-04-25T19:51:37.491Z,25.70
2023-04-25T19:54:05.559Z,20.80
2023-04-25T19:56:33.276Z,29.10
2023-04-25T19:59:01.120Z,22.50
2023-04-25T20:01:29.472Z,18.20
2023-04-25T20:03:57.372Z,15.40
2023-04-25T20:06:25.217Z,15.90
2023-04-25T20:08:53.637Z,13.50
2023-04-25T20:11:21.890Z,14.70
2023-04-25T20:13:50.051Z,18.20
2023-04-25T20:16:20.364Z,14.10
2023-04-25T20:18:49.013Z,19.80
2023-04-25T20:21:17.487Z,14.90
2023-04-25T20:23:46.223Z,24.80
2023-04-25T20:26:14.179Z,18.50
2023-04-25T20:28:42.157Z,16.10
2023-04-25T20:31:11.248Z,14.40
2023-04-25T20:33:39.082Z,18.20
2023-04-25T20:36:06.905Z,19.10
2023-04-25T20:38:34.636Z,15.80
2023-04-25T20:41:02.750Z,15.50
2023-04-25T20:43:31.492Z,16.60
2023-04-25T20:46:00.374Z,20.00
2023-04-25T20:48:28.171Z,16.30
2023-04-25T20:50:57.040Z,16.50
2023-04-25T20:53:24.803Z,16.90
2023-04-25T20:55:52.564Z,15.30
2023-04-25T20:58:20.838Z,17.90
2023-04-25T21:00:49.203Z,17.50
2023-04-25T21:03:17.385Z,14.20
2023-04-25T21:05:46.787Z,18.70
2023-04-25T21:08:14.469Z,17.00
2023-04-25T21:10:42.235Z,15.30
2023-04-25T21:13:10.097Z,13.70
2023-04-25T21:15:38.266Z,14.50
2023-04-25T21:18:07.137Z,14.80
2023-04-25T21:20:35.146Z,18.50
2023-04-25T21:23:03.402Z,18.50
2023-04-25T21:25:31.732Z,17.80
2023-04-25T21:28:00.262Z,14.70
2023-04-25T21:30:28.620Z,12.20
2023-04-25T21:32:56.921Z,10.50
2023-04-25T21:35:25.285Z,10.50
2023-04-25T21:37:53.141Z,10.40
2023-04-25T21:40:21.736Z,10.10
2023-04-25T21:42:51.674Z,9.10
2023-04-25T21:45:20.771Z,5.90
2023-04-25T21:47:48.652Z,8.50
2023-04-25T21:50:17.310Z,7.30
2023-04-25T21:52:45.170Z,5.60
2023-04-25T21:55:12.929Z,7.70
2023-04-25T21:57:41.400Z,8.40
2023-04-25T22:00:21.083Z,7.00
2023-04-25T22:02:48.862Z,9.20
2023-04-25T22:05:20.350Z,10.30
2023-04-25T22:10:21.750Z,6.60
2023-04-25T22:15:23.720Z,10.80
2023-04-25T22:17:54.277Z,8.70
2023-04-25T22:20:26.337Z,7.30
2023-04-25T22:22:57.743Z,7.10
2023-04-25T22:25:25.599Z,6.70
2023-04-25T22:27:53.267Z,6.60
2023-04-25T22:30:21.756Z,8.20
2023-04-25T22:32:49.523Z,6.40
2023-04-25T22:35:17.561Z,7.50
2023-04-25T22:37:45.321Z,7.50
2023-04-25T22:40:13.347Z,5.90
2023-04-25T22:42:43.615Z,8.70
2023-04-25T22:45:11.716Z,5.60
2023-04-25T22:47:40.137Z,6.30
2023-04-25T22:50:13.076Z,7.30
2023-04-25T22:52:42.797Z,6.20
2023-04-25T22:55:13.090Z,9.50
2023-04-25T22:57:41.687Z,8.60
2023-04-25T23:00:19.808Z,9.30
2023-04-25T23:02:49.859Z,7.00
2023-04-25T23:05:18.575Z,6.40
2023-04-25T23:07:46.336Z,9.10
2023-04-25T23:10:14.337Z,6.70
2023-04-25T23:12:42.436Z,6.70
2023-04-25T23:15:12.415Z,9.30
2023-04-25T23:17:41.262Z,7.80
2023-04-25T23:20:11.202Z,12.50
2023-04-25T23:22:39.194Z,7.60
2023-04-25T23:25:08.093Z,5.50
2023-04-25T23:27:35.852Z,4.90
2023-04-25T23:30:04.090Z,10.60
2023-04-25T23:32:32.316Z,7.60
2023-04-25T23:35:00.186Z,10.00
2023-04-25T23:37:28.015Z,10.20
2023-04-25T23:39:55.763Z,7.70
2023-04-25T23:42:23.528Z,7.00
2023-04-25T23:44:51.295Z,6.80
2023-04-25T23:47:19.174Z,8.50
2023-04-25T23:49:46.834Z,9.90
2023-04-25T23:52:14.525Z,7.60
2023-04-25T23:54:42.648Z,6.50
2023-04-25T23:57:12.270Z,9.90
2023-04-25T23:59:40.029Z,13.20
